Texas Valley, New York
Current Conditions -  °F | °C
As of 11:35 AM on Friday 31 Oct 2014 (Local Time) from KN03 Reporting Station
Overcast Overcast  
Wind Chill: 41°   Ceiling: 4500
Heat Index: 41°   Visibility: 10mi
Dew Point: 36°   Wind: 3mph
Humidity: 81%   Direction: 40°NE
Pressure: 29.99"   Gusts: NA
Location:  42.4596°N, 76.0658°W
Report Text: KN03 311535Z AUTO 04003KT 10SM OVC045 05/02 A2999 RMK AO2
Loading
Personal Weather Stations






























Interactive Weather Map New forecast layout! Learn more

10-Day Weather Forecast

Advertisements
Track Severe Weather on mobile